Time;durP1;ratioP1;P1;durP2;ratioP2;P2;SDS_P1;SDS_P2;PMS_P1;PMS_P2;Temp;Humidity;BMP_temperature;BMP_pressure;BME280_temperature;BME280_humidity;BME280_pressure;Samples;Min_cycle;Max_cycle;Signal;HPM_P1;HPM_P2
2023/01/21 00:00:12;;;;;;;1.07;0.67;;;;;;;-146.25;100.00;57403.91;5049741;28;20294;-80
2023/01/21 00:02:40;;;;;;;2.30;1.27;;;;;;;-146.25;100.00;57403.91;5049916;28;20269;-81
2023/01/21 00:05:08;;;;;;;2.10;0.30;;;;;;;-146.25;100.00;57403.91;5049770;28;20253;-80
2023/01/21 00:07:35;;;;;;;2.77;1.17;;;;;;;-146.25;100.00;57403.91;5049569;28;20249;-81
2023/01/21 00:10:02;;;;;;;1.33;1.13;;;;;;;-146.25;100.00;57403.91;5049442;28;20220;-81
2023/01/21 00:12:29;;;;;;;1.27;1.20;;;;;;;-146.25;100.00;57403.91;5049352;28;20203;-80
2023/01/21 00:14:56;;;;;;;0.80;0.80;;;;;;;-146.25;100.00;57403.91;5049784;28;20230;-80
2023/01/21 00:17:23;;;;;;;1.33;0.70;;;;;;;-146.25;100.00;57403.91;5049703;28;20207;-80
2023/01/21 00:19:51;;;;;;;0.33;0.33;;;;;;;-146.25;100.00;57403.91;5049946;28;20225;-81
2023/01/21 00:22:18;;;;;;;0.27;0.27;;;;;;;-146.25;100.00;57403.91;5049798;28;20199;-81
2023/01/21 00:24:45;;;;;;;0.10;0.10;;;;;;;-146.25;100.00;57403.91;5049565;28;20214;-81
2023/01/21 00:27:13;;;;;;;0.73;0.43;;;;;;;-146.25;100.00;57403.91;5049615;28;20738;-79
2023/01/21 00:29:40;;;;;;;0.80;0.80;;;;;;;-146.25;100.00;57403.91;5049803;28;20199;-81
2023/01/21 00:32:07;;;;;;;1.30;0.53;;;;;;;-146.25;100.00;57403.91;5049900;28;20222;-81
2023/01/21 00:34:34;;;;;;;0.40;0.40;;;;;;;-146.25;100.00;57403.91;5049465;28;20235;-80
2023/01/21 00:37:02;;;;;;;1.43;1.20;;;;;;;-146.25;100.00;57403.91;5049852;28;20205;-81
2023/01/21 00:39:29;;;;;;;1.03;0.97;;;;;;;-146.25;100.00;57403.91;5049560;28;20199;-80
2023/01/21 00:41:56;;;;;;;0.53;0.50;;;;;;;-146.25;100.00;57403.91;5049294;28;20714;-80
2023/01/21 00:44:23;;;;;;;0.30;0.30;;;;;;;-146.25;100.00;57403.91;5049907;28;20199;-81
2023/01/21 00:46:50;;;;;;;0.53;0.53;;;;;;;-146.25;100.00;57403.91;5049447;28;20249;-80
2023/01/21 00:49:17;;;;;;;1.80;0.50;;;;;;;-146.25;100.00;57403.91;5049417;28;20200;-80
2023/01/21 00:51:44;;;;;;;0.30;0.30;;;;;;;-146.25;100.00;57403.91;5049463;28;20195;-80
2023/01/21 00:54:12;;;;;;;1.40;0.87;;;;;;;-146.25;100.00;57403.91;5049412;28;20280;-80
2023/01/21 00:56:39;;;;;;;0.97;0.40;;;;;;;-146.25;100.00;57403.91;5049253;28;20294;-80
2023/01/21 00:59:07;;;;;;;0.20;0.20;;;;;;;-146.25;100.00;57403.91;5049467;28;20203;-81
2023/01/21 01:01:37;;;;;;;0.27;0.27;;;;;;;-146.25;100.00;57403.91;5052191;28;20192;-81
2023/01/21 01:04:05;;;;;;;0.13;0.13;;;;;;;-146.25;100.00;57403.91;5052911;28;20195;-80
2023/01/21 01:06:33;;;;;;;0.50;0.50;;;;;;;-146.25;100.00;57403.91;5052571;28;20226;-79
2023/01/21 01:09:00;;;;;;;1.30;0.80;;;;;;;-146.25;100.00;57403.91;5053137;28;20227;-79
2023/01/21 01:11:30;;;;;;;0.20;0.20;;;;;;;-146.25;100.00;57403.91;5053056;28;20218;-80
2023/01/21 01:13:58;;;;;;;0.53;0.53;;;;;;;-146.25;100.00;57403.91;5053361;28;20203;-81
2023/01/21 01:16:26;;;;;;;2.83;1.23;;;;;;;-146.25;100.00;57403.91;5053850;28;20278;-79
2023/01/21 01:18:53;;;;;;;0.27;0.27;;;;;;;-146.25;100.00;57403.91;5052929;28;20210;-79
2023/01/21 01:21:22;;;;;;;2.63;1.40;;;;;;;-146.25;100.00;57403.91;5052793;28;20203;-80
2023/01/21 01:23:50;;;;;;;0.43;0.43;;;;;;;-146.25;100.00;57403.91;5052979;28;20199;-80
2023/01/21 01:26:20;;;;;;;1.13;0.60;;;;;;;-146.25;100.00;57403.91;5052646;28;20643;-80
2023/01/21 01:28:49;;;;;;;0.33;0.33;;;;;;;-146.25;100.00;57403.91;5053038;28;20621;-79
2023/01/21 01:31:17;;;;;;;1.70;1.10;;;;;;;-146.25;100.00;57403.91;5044690;28;20233;-80
2023/01/21 01:33:44;;;;;;;0.70;0.70;;;;;;;-146.25;100.00;57403.91;5052423;28;20207;-79
2023/01/21 01:36:14;;;;;;;0.30;0.30;;;;;;;-146.25;100.00;57403.91;5052665;28;20241;-79
2023/01/21 01:38:41;;;;;;;2.17;0.97;;;;;;;-146.25;100.00;57403.91;5052720;28;20199;-80
2023/01/21 01:41:13;;;;;;;0.60;0.60;;;;;;;-146.25;100.00;57403.91;5052697;28;20195;-80
2023/01/21 01:43:56;;;;;;;0.57;0.57;;;;;;;-146.25;100.00;57403.91;5052324;28;20275;-80
2023/01/21 01:46:25;;;;;;;0.47;0.47;;;;;;;-146.25;100.00;57403.91;5052180;28;20306;-80
2023/01/21 01:48:59;;;;;;;4.73;0.80;;;;;;;-146.25;100.00;57403.91;5052381;28;20637;-80
2023/01/21 01:51:37;;;;;;;0.53;0.53;;;;;;;-146.25;100.00;57403.91;5052748;28;20652;-79
2023/01/21 01:54:05;;;;;;;0.87;0.40;;;;;;;-146.25;100.00;57403.91;5052117;28;20202;-80
2023/01/21 01:56:31;;;;;;;1.73;0.67;;;;;;;-146.25;100.00;57403.91;5052459;28;20648;-79
2023/01/21 01:59:00;;;;;;;3.70;1.33;;;;;;;-146.25;100.00;57403.91;5052066;28;20265;-80
2023/01/21 02:01:27;;;;;;;0.50;0.50;;;;;;;-146.25;100.00;57403.91;5052235;28;20200;-82
2023/01/21 02:03:58;;;;;;;0.53;0.30;;;;;;;-146.25;100.00;57403.91;5051885;28;20203;-79
2023/01/21 02:06:26;;;;;;;0.40;0.40;;;;;;;-146.25;100.00;57403.91;5052173;28;20230;-79
2023/01/21 02:08:55;;;;;;;0.20;0.20;;;;;;;-146.25;100.00;57403.91;5051346;28;20223;-81
2023/01/21 02:11:22;;;;;;;1.10;1.10;;;;;;;-146.25;100.00;57403.91;5052525;28;20686;-80
2023/01/21 02:13:53;;;;;;;0.30;0.30;;;;;;;-146.25;100.00;57403.91;5051995;28;20664;-80
2023/01/21 02:16:54;;;;;;;0.83;0.83;;;;;;;-146.25;100.00;57403.91;5051880;28;20822;-80
2023/01/21 02:20:09;;;;;;;1.10;0.97;;;;;;;-146.25;100.00;57403.91;5048367;28;20583;-80
2023/01/21 02:22:45;;;;;;;0.10;0.10;;;;;;;-146.25;100.00;57403.91;5020338;28;20203;-81
2023/01/21 02:25:57;;;;;;;0.47;0.47;;;;;;;-146.25;100.00;57403.91;5051329;28;20207;-80
2023/01/21 02:28:58;;;;;;;0.10;0.10;;;;;;;-146.25;100.00;57403.91;4995109;28;20212;-80
2023/01/21 02:31:43;;;;;;;1.50;1.40;;;;;;;-146.25;100.00;57403.91;5044983;28;20207;-80
2023/01/21 02:34:21;;;;;;;1.80;0.50;;;;;;;-146.25;100.00;57403.91;5051252;28;20238;-79
2023/01/21 02:37:01;;;;;;;0.00;0.00;;;;;;;-146.25;100.00;57403.91;5051335;28;20187;-80
2023/01/21 02:39:45;;;;;;;0.70;0.70;;;;;;;-146.25;100.00;57403.91;5051367;28;20207;-80
2023/01/21 02:42:18;;;;;;;0.27;0.27;;;;;;;-146.25;100.00;57403.91;5051583;28;20195;-80
2023/01/21 02:44:53;;;;;;;0.77;0.40;;;;;;;-146.25;100.00;57403.91;5051417;28;20192;-79
2023/01/21 02:47:26;;;;;;;0.27;0.17;;;;;;;-146.25;100.00;57403.91;5051208;28;20233;-80
2023/01/21 02:49:58;;;;;;;0.10;0.10;;;;;;;-146.25;100.00;57403.91;5052861;28;20226;-80
2023/01/21 02:52:27;;;;;;;0.57;0.57;;;;;;;-146.25;100.00;57403.91;5052650;28;20198;-81
2023/01/21 02:54:56;;;;;;;0.60;0.50;;;;;;;-146.25;100.00;57403.91;5052384;28;20411;-80
2023/01/21 02:57:36;;;;;;;0.33;0.33;;;;;;;-146.25;100.00;57403.91;5051701;28;20203;-80
2023/01/21 03:00:07;;;;;;;0.37;0.37;;;;;;;-146.25;100.00;57403.91;5051580;28;20257;-80
2023/01/21 03:02:55;;;;;;;0.07;0.07;;;;;;;-146.25;100.00;57403.91;5051142;28;20694;-80
2023/01/21 03:05:31;;;;;;;0.43;0.43;;;;;;;-146.25;100.00;57403.91;5066524;28;20679;-80
2023/01/21 03:08:04;;;;;;;1.50;0.30;;;;;;;-146.25;100.00;57403.91;5071389;28;20218;-80
2023/01/21 03:10:38;;;;;;;0.37;0.37;;;;;;;-146.25;100.00;57403.91;5070709;28;20219;-80
2023/01/21 03:13:13;;;;;;;0.20;0.20;;;;;;;-146.25;100.00;57403.91;5070610;28;20648;-81
2023/01/21 03:18:37;;;;;;;1.47;1.30;;;;;;;-146.25;100.00;57403.91;5070726;28;20178;-81
2023/01/21 03:21:08;;;;;;;0.73;0.27;;;;;;;-146.25;100.00;57403.91;5070453;28;20655;-81
2023/01/21 03:23:38;;;;;;;0.83;0.83;;;;;;;-146.25;100.00;57403.91;5069789;28;20183;-80
2023/01/21 03:26:08;;;;;;;0.70;0.70;;;;;;;-146.25;100.00;57403.91;5070653;28;20261;-80
2023/01/21 03:28:39;;;;;;;1.00;0.40;;;;;;;-146.25;100.00;57403.91;5070434;28;20209;-80
2023/01/21 03:31:11;;;;;;;0.97;0.97;;;;;;;-146.25;100.00;57403.91;5069904;28;20205;-79
2023/01/21 03:33:44;;;;;;;0.50;0.50;;;;;;;-146.25;100.00;57403.91;5070291;28;20194;-79
2023/01/21 03:36:21;;;;;;;0.77;0.43;;;;;;;-146.25;100.00;57403.91;5070429;28;20226;-80
2023/01/21 03:38:53;;;;;;;0.20;0.20;;;;;;;-146.25;100.00;57403.91;5068761;28;20190;-79
2023/01/21 03:41:22;;;;;;;1.27;0.60;;;;;;;-146.25;100.00;57403.91;5068703;28;20206;-81
2023/01/21 03:43:50;;;;;;;1.67;1.57;;;;;;;-146.25;100.00;57403.91;5068709;28;20205;-78
2023/01/21 03:46:24;;;;;;;1.00;0.87;;;;;;;-146.25;100.00;57403.91;5068200;28;20229;-81
2023/01/21 03:48:57;;;;;;;0.27;0.27;;;;;;;-146.25;100.00;57403.91;5068044;28;20237;-78
2023/01/21 03:51:32;;;;;;;0.40;0.40;;;;;;;-146.25;100.00;57403.91;5068601;28;20202;-80
2023/01/21 03:54:00;;;;;;;3.37;0.80;;;;;;;-146.25;100.00;57403.91;5069903;28;20190;-80
2023/01/21 03:56:27;;;;;;;0.17;0.17;;;;;;;-146.25;100.00;57403.91;5070435;28;20198;-79
2023/01/21 03:58:54;;;;;;;0.20;0.20;;;;;;;-146.25;100.00;57403.91;5070576;28;20237;-80
2023/01/21 04:01:22;;;;;;;0.10;0.10;;;;;;;-146.25;100.00;57403.91;5071020;28;20191;-81
2023/01/21 04:03:49;;;;;;;0.53;0.53;;;;;;;-146.25;100.00;57403.91;5069478;28;20538;-80
2023/01/21 04:06:18;;;;;;;1.40;0.93;;;;;;;-146.25;100.00;57403.91;5062340;28;20295;-79
2023/01/21 04:08:47;;;;;;;0.50;0.50;;;;;;;-146.25;100.00;57403.91;5070294;28;20202;-79
2023/01/21 04:11:13;;;;;;;2.63;0.53;;;;;;;-146.25;100.00;57403.91;5070322;28;20202;-79
2023/01/21 04:13:40;;;;;;;0.87;0.50;;;;;;;-146.25;100.00;57403.91;5070040;28;20210;-81
2023/01/21 04:16:08;;;;;;;1.70;1.13;;;;;;;-146.25;100.00;57403.91;5070267;28;20416;-78
2023/01/21 04:18:35;;;;;;;0.40;0.40;;;;;;;-146.25;100.00;57403.91;5068653;28;20226;-79
2023/01/21 04:21:02;;;;;;;0.40;0.40;;;;;;;-146.25;100.00;57403.91;5070157;28;20199;-81
2023/01/21 04:23:29;;;;;;;0.50;0.50;;;;;;;-146.25;100.00;57403.91;5070962;28;20327;-80
2023/01/21 04:25:58;;;;;;;0.67;0.30;;;;;;;-146.25;100.00;57403.91;5070395;28;20210;-80
2023/01/21 04:28:25;;;;;;;0.40;0.40;;;;;;;-146.25;100.00;57403.91;5069829;28;20202;-80
2023/01/21 04:30:51;;;;;;;0.30;0.30;;;;;;;-146.25;100.00;57403.91;5070614;28;20201;-78
2023/01/21 04:33:18;;;;;;;0.30;0.30;;;;;;;-146.25;100.00;57403.91;5069791;28;20205;-80
2023/01/21 04:35:45;;;;;;;0.37;0.37;;;;;;;-146.25;100.00;57403.91;5071510;28;20649;-79
2023/01/21 04:38:12;;;;;;;1.20;1.07;;;;;;;-146.25;100.00;57403.91;5073398;28;20198;-81
2023/01/21 04:40:39;;;;;;;2.20;1.23;;;;;;;-146.25;100.00;57403.91;5073508;28;20241;-80
2023/01/21 04:43:08;;;;;;;0.10;0.10;;;;;;;-146.25;100.00;57403.91;5073217;28;20197;-79
2023/01/21 04:45:35;;;;;;;0.37;0.37;;;;;;;-146.25;100.00;57403.91;5073746;28;20204;-80
2023/01/21 04:48:02;;;;;;;0.73;0.73;;;;;;;-146.25;100.00;57403.91;5073375;28;20260;-79
2023/01/21 04:50:29;;;;;;;0.63;0.53;;;;;;;-146.25;100.00;57403.91;5073713;28;20255;-79
2023/01/21 04:52:56;;;;;;;0.67;0.67;;;;;;;-146.25;100.00;57403.91;5073267;28;20194;-79
2023/01/21 04:55:23;;;;;;;0.57;0.57;;;;;;;-146.25;100.00;57403.91;5073111;28;20198;-81
2023/01/21 04:57:49;;;;;;;0.60;0.60;;;;;;;-146.25;100.00;57403.91;5073545;28;20194;-79
2023/01/21 05:00:19;;;;;;;0.47;0.47;;;;;;;-146.25;100.00;57403.91;5073155;28;20245;-79
2023/01/21 05:02:45;;;;;;;0.40;0.40;;;;;;;-146.25;100.00;57403.91;5073292;28;20199;-79
2023/01/21 05:05:12;;;;;;;0.37;0.37;;;;;;;-146.25;100.00;57403.91;5073883;28;20220;-79
2023/01/21 05:07:39;;;;;;;0.83;0.80;;;;;;;-146.25;100.00;57403.91;5073878;28;20230;-80
2023/01/21 05:10:07;;;;;;;0.13;0.13;;;;;;;-146.25;100.00;57403.91;5073509;28;20297;-79
2023/01/21 05:12:34;;;;;;;0.30;0.30;;;;;;;-146.25;100.00;57403.91;5073763;28;20190;-80
2023/01/21 05:15:01;;;;;;;1.03;1.03;;;;;;;-146.25;100.00;57403.91;5073293;28;20288;-80
2023/01/21 05:17:29;;;;;;;4.63;0.97;;;;;;;-146.25;100.00;57403.91;5073332;28;20210;-79
2023/01/21 05:19:56;;;;;;;0.37;0.37;;;;;;;-146.25;100.00;57403.91;5072962;28;20214;-82
2023/01/21 05:22:23;;;;;;;12.63;0.77;;;;;;;-146.25;100.00;57403.91;5073157;28;20256;-81
2023/01/21 05:24:50;;;;;;;0.27;0.27;;;;;;;-146.25;100.00;57403.91;5073183;28;20202;-80
2023/01/21 05:27:18;;;;;;;1.13;0.90;;;;;;;-146.25;100.00;57403.91;5072533;28;20230;-77
2023/01/21 05:29:46;;;;;;;0.40;0.40;;;;;;;-146.25;100.00;57403.91;5072500;28;20612;-80
2023/01/21 05:32:13;;;;;;;1.00;1.00;;;;;;;-146.25;100.00;57403.91;5072742;28;20200;-79
2023/01/21 05:34:42;;;;;;;0.40;0.40;;;;;;;-146.25;100.00;57403.91;5072668;28;20303;-80
2023/01/21 05:37:09;;;;;;;0.30;0.30;;;;;;;-146.25;100.00;57403.91;5072846;28;20211;-81
2023/01/21 05:39:36;;;;;;;0.47;0.47;;;;;;;-146.25;100.00;57403.91;5073305;28;20198;-80
2023/01/21 05:42:04;;;;;;;0.97;0.87;;;;;;;-146.25;100.00;57403.91;5072746;28;20199;-80
2023/01/21 05:44:30;;;;;;;0.67;0.53;;;;;;;-146.25;100.00;57403.91;5072553;28;20284;-80
2023/01/21 05:46:57;;;;;;;1.43;1.13;;;;;;;-146.25;100.00;57403.91;5071616;28;20771;-81
2023/01/21 05:49:24;;;;;;;0.73;0.73;;;;;;;-146.25;100.00;57403.91;5072923;28;20659;-80
2023/01/21 05:51:52;;;;;;;0.60;0.60;;;;;;;-146.25;100.00;57403.91;5072653;28;20195;-81
2023/01/21 05:54:19;;;;;;;0.60;0.60;;;;;;;-146.25;100.00;57403.91;5072317;28;20308;-80
2023/01/21 05:56:46;;;;;;;1.03;0.40;;;;;;;-146.25;100.00;57403.91;5072192;28;20195;-79
2023/01/21 05:59:13;;;;;;;0.57;0.57;;;;;;;-146.25;100.00;57403.91;5072464;28;20286;-81
2023/01/21 06:01:40;;;;;;;0.50;0.40;;;;;;;-146.25;100.00;57403.91;5072463;28;20512;-80
2023/01/21 06:04:07;;;;;;;0.30;0.30;;;;;;;-146.25;100.00;57403.91;5072284;28;20293;-81
2023/01/21 06:06:34;;;;;;;0.43;0.33;;;;;;;-146.25;100.00;57403.91;5072119;28;20252;-80
2023/01/21 06:09:03;;;;;;;0.70;0.70;;;;;;;-146.25;100.00;57403.91;5072449;28;20238;-80
2023/01/21 06:11:30;;;;;;;0.67;0.67;;;;;;;-146.25;100.00;57403.91;5072467;28;20198;-80
2023/01/21 06:13:57;;;;;;;0.97;0.97;;;;;;;-146.25;100.00;57403.91;5072790;28;20260;-80
2023/01/21 06:16:24;;;;;;;0.73;0.63;;;;;;;-146.25;100.00;57403.91;5072443;28;20305;-80
2023/01/21 06:18:51;;;;;;;1.33;0.67;;;;;;;-146.25;100.00;57403.91;5072032;28;20203;-81
2023/01/21 06:21:18;;;;;;;1.70;0.40;;;;;;;-146.25;100.00;57403.91;5072248;28;20656;-80
2023/01/21 06:23:45;;;;;;;0.63;0.63;;;;;;;-146.25;100.00;57403.91;5071963;28;20271;-80
2023/01/21 06:26:14;;;;;;;0.97;0.57;;;;;;;-146.25;100.00;57403.91;5071455;28;20715;-80
2023/01/21 06:28:40;;;;;;;3.10;0.83;;;;;;;-146.25;100.00;57403.91;5071438;28;20230;-80
2023/01/21 06:31:07;;;;;;;0.60;0.60;;;;;;;-146.25;100.00;57403.91;5071655;28;20282;-79
2023/01/21 06:33:34;;;;;;;0.60;0.60;;;;;;;-146.25;100.00;57403.91;5071514;28;20259;-80
2023/01/21 06:36:01;;;;;;;0.43;0.43;;;;;;;-146.25;100.00;57403.91;5071832;28;20202;-81
2023/01/21 06:38:28;;;;;;;0.50;0.50;;;;;;;-146.25;100.00;57403.91;5072378;28;20209;-79
2023/01/21 06:40:55;;;;;;;0.80;0.63;;;;;;;-146.25;100.00;57403.91;5071780;28;20210;-80
2023/01/21 06:43:23;;;;;;;1.57;1.57;;;;;;;-146.25;100.00;57403.91;5071548;28;20640;-79
2023/01/21 06:45:51;;;;;;;1.03;0.73;;;;;;;-146.25;100.00;57403.91;5071459;28;20206;-81
2023/01/21 06:48:18;;;;;;;2.13;0.80;;;;;;;-146.25;100.00;57403.91;5071093;28;20322;-79
2023/01/21 06:50:45;;;;;;;1.37;1.00;;;;;;;-146.25;100.00;57403.91;5071811;28;20233;-81
2023/01/21 06:53:12;;;;;;;0.90;0.90;;;;;;;-146.25;100.00;57403.91;5071361;28;20198;-78
2023/01/21 06:55:39;;;;;;;0.70;0.70;;;;;;;-146.25;100.00;57403.91;5071990;28;20656;-80
2023/01/21 06:58:06;;;;;;;0.87;0.87;;;;;;;-146.25;100.00;57403.91;5070807;28;20745;-80
2023/01/21 07:00:34;;;;;;;0.77;0.77;;;;;;;-146.25;100.00;57403.91;5071905;28;20210;-79
2023/01/21 07:03:01;;;;;;;5.53;0.80;;;;;;;-146.25;100.00;57403.91;5072746;28;20206;-80
2023/01/21 07:05:28;;;;;;;1.07;1.07;;;;;;;-146.25;100.00;57403.91;5072061;28;20205;-79
2023/01/21 07:07:55;;;;;;;1.67;1.57;;;;;;;-146.25;100.00;57403.91;5078815;28;20234;-80
2023/01/21 07:10:23;;;;;;;0.83;0.83;;;;;;;-146.25;100.00;57403.91;5073263;28;20225;-80
2023/01/21 07:12:50;;;;;;;0.97;0.97;;;;;;;-146.25;100.00;57403.91;5072707;28;20202;-80
2023/01/21 07:15:18;;;;;;;2.20;2.03;;;;;;;-146.25;100.00;57403.91;5072358;28;20198;-82
2023/01/21 07:17:47;;;;;;;1.00;0.93;;;;;;;-146.25;100.00;57403.91;5072583;28;20198;-80
2023/01/21 07:20:15;;;;;;;1.20;1.17;;;;;;;-146.25;100.00;57403.91;5072276;28;20198;-79
2023/01/21 07:22:42;;;;;;;2.80;1.83;;;;;;;-146.25;100.00;57403.91;5071354;28;20209;-82
2023/01/21 07:25:10;;;;;;;2.20;2.07;;;;;;;-146.25;100.00;57403.91;5071526;28;20199;-81
2023/01/21 07:27:37;;;;;;;1.07;1.07;;;;;;;-146.25;100.00;57403.91;5071495;28;20229;-81
2023/01/21 07:30:05;;;;;;;3.27;2.10;;;;;;;-146.25;100.00;57403.91;5070911;28;20199;-81
2023/01/21 07:32:32;;;;;;;1.53;1.43;;;;;;;-146.25;100.00;57403.91;5071003;28;20204;-81
2023/01/21 07:35:00;;;;;;;1.17;0.93;;;;;;;-146.25;100.00;57403.91;5070666;28;20319;-80
2023/01/21 07:37:27;;;;;;;1.10;1.10;;;;;;;-146.25;100.00;57403.91;5071113;28;20226;-81
2023/01/21 07:39:55;;;;;;;1.10;1.10;;;;;;;-146.25;100.00;57403.91;5070750;28;20234;-81
2023/01/21 07:42:22;;;;;;;1.43;0.93;;;;;;;-146.25;100.00;57403.91;5071517;28;20281;-80
2023/01/21 07:44:49;;;;;;;1.53;1.53;;;;;;;-146.25;100.00;57403.91;5071434;28;20201;-80
2023/01/21 07:47:16;;;;;;;5.20;1.33;;;;;;;-146.25;100.00;57403.91;5070771;28;20255;-80
2023/01/21 07:49:43;;;;;;;0.73;0.63;;;;;;;-146.25;100.00;57403.91;5070338;28;20693;-80
2023/01/21 07:52:12;;;;;;;2.30;1.47;;;;;;;-146.25;100.00;57403.91;5070462;28;20667;-81
2023/01/21 07:54:39;;;;;;;0.57;0.57;;;;;;;-146.25;100.00;57403.91;5071118;28;20304;-80
2023/01/21 07:57:06;;;;;;;1.57;1.47;;;;;;;-146.25;100.00;57403.91;5070684;28;20210;-82
2023/01/21 07:59:32;;;;;;;2.97;1.80;;;;;;;-146.25;100.00;57403.91;5070744;28;20668;-82
2023/01/21 08:01:59;;;;;;;8.93;1.93;;;;;;;-146.25;100.00;57403.91;5070884;28;20195;-82
2023/01/21 08:04:26;;;;;;;1.17;0.83;;;;;;;-146.25;100.00;57403.91;5070375;28;20199;-82
2023/01/21 08:06:55;;;;;;;1.67;1.67;;;;;;;-146.25;100.00;57403.91;5070230;28;20197;-81
2023/01/21 08:09:24;;;;;;;2.93;0.67;;;;;;;-146.25;100.00;57403.91;5071159;28;20290;-81
2023/01/21 08:11:51;;;;;;;1.17;1.13;;;;;;;-146.25;100.00;57403.91;5074005;28;20703;-81
2023/01/21 08:14:18;;;;;;;0.27;0.27;;;;;;;-146.25;100.00;57403.91;5074140;28;20202;-81
2023/01/21 08:16:45;;;;;;;0.93;0.30;;;;;;;-146.25;100.00;57403.91;5074029;28;20237;-81
2023/01/21 08:19:12;;;;;;;0.13;0.13;;;;;;;-146.25;100.00;57403.91;5074563;28;20205;-81
2023/01/21 08:21:39;;;;;;;1.57;1.47;;;;;;;-146.25;100.00;57403.91;5073974;28;20202;-82
2023/01/21 08:24:06;;;;;;;0.43;0.43;;;;;;;-146.25;100.00;57403.91;5074238;28;20201;-81
2023/01/21 08:26:35;;;;;;;0.40;0.40;;;;;;;-146.25;100.00;57403.91;5074760;28;20201;-80
2023/01/21 08:29:02;;;;;;;0.20;0.20;;;;;;;-146.25;100.00;57403.91;5073662;28;20227;-81
2023/01/21 08:31:29;;;;;;;1.13;1.13;;;;;;;-146.25;100.00;57403.91;5074093;28;20195;-81
2023/01/21 08:33:56;;;;;;;0.47;0.47;;;;;;;-146.25;100.00;57403.91;5073662;28;20261;-82
2023/01/21 08:36:23;;;;;;;0.30;0.30;;;;;;;-146.25;100.00;57403.91;5074606;28;20246;-80
2023/01/21 08:38:53;;;;;;;0.03;0.03;;;;;;;-146.25;100.00;57403.91;5074040;28;20210;-80
2023/01/21 08:41:20;;;;;;;1.00;1.00;;;;;;;-146.25;100.00;57403.91;5074044;28;20201;-79
2023/01/21 08:43:48;;;;;;;0.67;0.10;;;;;;;-146.25;100.00;57403.91;5073995;28;20198;-82
2023/01/21 08:46:15;;;;;;;0.40;0.40;;;;;;;-146.25;100.00;57403.91;5073968;28;20263;-82
2023/01/21 08:48:43;;;;;;;1.50;0.37;;;;;;;-146.25;100.00;57403.91;5073839;28;20231;-80
2023/01/21 08:51:10;;;;;;;0.10;0.10;;;;;;;-146.25;100.00;57403.91;5074266;28;20197;-82
2023/01/21 08:53:37;;;;;;;0.37;0.30;;;;;;;-146.25;100.00;57403.91;5073619;28;20585;-81
2023/01/21 08:56:04;;;;;;;0.10;0.10;;;;;;;-146.25;100.00;57403.91;5073606;28;20571;-80
2023/01/21 08:58:32;;;;;;;1.00;1.00;;;;;;;-146.25;100.00;57403.91;5073519;28;20307;-82
2023/01/21 09:01:07;;;;;;;1.47;1.37;;;;;;;-146.25;100.00;57403.91;5073565;28;20206;-80
2023/01/21 09:03:34;;;;;;;1.60;0.67;;;;;;;-146.25;100.00;57403.91;5073237;28;20554;-81
2023/01/21 09:06:01;;;;;;;0.67;0.67;;;;;;;-146.25;100.00;57403.91;5075188;28;20683;-82
2023/01/21 09:08:28;;;;;;;0.77;0.77;;;;;;;-146.25;100.00;57403.91;5073125;28;20352;-81
2023/01/21 09:11:04;;;;;;;1.03;1.03;;;;;;;-146.25;100.00;57403.91;5073100;28;20332;-80
2023/01/21 09:13:33;;;;;;;0.10;0.10;;;;;;;-146.25;100.00;57403.91;5073250;28;20233;-81
2023/01/21 09:16:02;;;;;;;0.30;0.30;;;;;;;-146.25;100.00;57403.91;5073213;28;20263;-80
2023/01/21 09:18:29;;;;;;;0.87;0.50;;;;;;;-146.25;100.00;57403.91;5073494;28;20209;-81
2023/01/21 09:21:00;;;;;;;0.60;0.20;;;;;;;-146.25;100.00;57403.91;5072026;28;20290;-80
2023/01/21 09:23:30;;;;;;;0.30;0.30;;;;;;;-146.25;100.00;57403.91;5073191;28;20234;-80
2023/01/21 09:26:03;;;;;;;0.10;0.10;;;;;;;-146.25;100.00;57403.91;5072822;28;20193;-82
2023/01/21 09:28:32;;;;;;;0.10;0.10;;;;;;;-146.25;100.00;57403.91;5073450;28;20233;-81
2023/01/21 09:31:02;;;;;;;0.20;0.20;;;;;;;-146.25;100.00;57403.91;5073088;28;20279;-81
2023/01/21 09:33:30;;;;;;;0.17;0.17;;;;;;;-146.25;100.00;57403.91;5073007;28;20203;-82
2023/01/21 09:35:58;;;;;;;0.33;0.33;;;;;;;-146.25;100.00;57403.91;5072838;28;20316;-80
2023/01/21 09:38:26;;;;;;;0.67;0.23;;;;;;;-146.25;100.00;57403.91;5072795;28;20200;-80
2023/01/21 09:40:55;;;;;;;0.30;0.30;;;;;;;-146.25;100.00;57403.91;5072949;28;20208;-81
2023/01/21 09:43:27;;;;;;;0.10;0.10;;;;;;;-146.25;100.00;57403.91;5073016;28;20198;-81
2023/01/21 09:45:58;;;;;;;0.20;0.20;;;;;;;-146.25;100.00;57403.91;5072486;28;20202;-82
2023/01/21 09:48:33;;;;;;;0.00;0.00;;;;;;;-146.25;100.00;57403.91;5072623;28;20580;-82
2023/01/21 09:51:04;;;;;;;0.63;0.43;;;;;;;-146.25;100.00;57403.91;5072415;28;20213;-81
2023/01/21 09:53:38;;;;;;;0.30;0.30;;;;;;;-146.25;100.00;57403.91;5072465;28;20249;-81
2023/01/21 09:56:12;;;;;;;0.20;0.20;;;;;;;-146.25;100.00;57403.91;5073093;28;20287;-81
2023/01/21 09:58:42;;;;;;;0.07;0.07;;;;;;;-146.25;100.00;57403.91;5072328;28;20191;-81
2023/01/21 10:01:15;;;;;;;0.00;0.00;;;;;;;-146.25;100.00;57403.91;5072200;28;20199;-81
2023/01/21 10:03:53;;;;;;;0.53;0.43;;;;;;;-146.25;100.00;57403.91;5072468;28;20196;-81
2023/01/21 10:06:28;;;;;;;0.10;0.10;;;;;;;-146.25;100.00;57403.91;5072731;28;20202;-81
2023/01/21 10:09:11;;;;;;;0.00;0.00;;;;;;;-146.25;100.00;57403.91;5073580;28;20786;-80
2023/01/21 10:11:48;;;;;;;2.00;1.17;;;;;;;-146.25;100.00;57403.91;5073432;28;20194;-81
2023/01/21 10:14:42;;;;;;;0.53;0.10;;;;;;;-146.25;100.00;57403.91;5072382;28;20263;-82
2023/01/21 10:17:16;;;;;;;0.10;0.10;;;;;;;-146.25;100.00;57403.91;5072419;28;20609;-81
2023/01/21 10:19:49;;;;;;;0.00;0.00;;;;;;;-146.25;100.00;57403.91;5072111;28;20194;-80
2023/01/21 10:22:22;;;;;;;0.20;0.10;;;;;;;-146.25;100.00;57403.91;5072193;28;20195;-81
2023/01/21 10:24:55;;;;;;;0.10;0.10;;;;;;;-146.25;100.00;57403.91;5071749;28;20679;-80
2023/01/21 10:27:23;;;;;;;0.10;0.10;;;;;;;-146.25;100.00;57403.91;5071937;28;20211;-80
2023/01/21 10:29:55;;;;;;;0.37;0.37;;;;;;;-146.25;100.00;57403.91;5071572;28;20312;-81
2023/01/21 10:32:25;;;;;;;0.77;0.17;;;;;;;-146.25;100.00;57403.91;5071729;28;20213;-82
2023/01/21 10:34:56;;;;;;;2.87;0.50;;;;;;;-146.25;100.00;57403.91;5071112;28;20238;-81
2023/01/21 10:37:35;;;;;;;0.37;0.37;;;;;;;-146.25;100.00;57403.91;5071622;28;20195;-82
2023/01/21 10:40:12;;;;;;;0.10;0.10;;;;;;;-146.25;100.00;57403.91;5071307;28;20202;-81
2023/01/21 10:42:58;;;;;;;0.10;0.10;;;;;;;-146.25;100.00;57403.91;5071280;28;20739;-80
2023/01/21 10:45:36;;;;;;;0.17;0.17;;;;;;;-146.25;100.00;57403.91;5071860;28;20202;-80
2023/01/21 10:48:11;;;;;;;0.00;0.00;;;;;;;-146.25;100.00;57403.91;5071377;28;20197;-82
2023/01/21 10:50:47;;;;;;;1.50;1.17;;;;;;;-146.25;100.00;57403.91;5076654;28;20682;-80
2023/01/21 10:53:23;;;;;;;0.07;0.07;;;;;;;-146.25;100.00;57403.91;5073032;28;20201;-82
2023/01/21 10:56:00;;;;;;;1.07;0.13;;;;;;;-146.25;100.00;57403.91;5071159;28;20220;-82
2023/01/21 10:58:32;;;;;;;0.10;0.10;;;;;;;-146.25;100.00;57403.91;5071337;28;20224;-81
2023/01/21 11:01:03;;;;;;;0.53;0.53;;;;;;;-146.25;100.00;57403.91;5071230;28;20201;-81
2023/01/21 11:03:37;;;;;;;0.00;0.00;;;;;;;-146.25;100.00;57403.91;5070846;28;20203;-81
2023/01/21 11:06:08;;;;;;;0.20;0.20;;;;;;;-146.25;100.00;57403.91;5071086;28;20202;-81
2023/01/21 11:08:35;;;;;;;0.13;0.13;;;;;;;-146.25;100.00;57403.91;5070969;28;20703;-82
2023/01/21 11:11:06;;;;;;;0.00;0.00;;;;;;;-146.25;100.00;57403.91;5070452;28;20272;-82
2023/01/21 11:13:33;;;;;;;0.17;0.17;;;;;;;-146.25;100.00;57403.91;5070992;28;20203;-81
2023/01/21 11:16:03;;;;;;;0.60;0.60;;;;;;;-146.25;100.00;57403.91;5070773;28;20281;-80
2023/01/21 11:18:33;;;;;;;0.10;0.10;;;;;;;-146.25;100.00;57403.91;5070783;28;20581;-80
2023/01/21 11:21:04;;;;;;;0.03;0.03;;;;;;;-146.25;100.00;57403.91;5071303;28;20225;-81
2023/01/21 11:23:34;;;;;;;0.00;0.00;;;;;;;-146.25;100.00;57403.91;5070764;28;20198;-81